Time;durP1;ratioP1;P1;durP2;ratioP2;P2;SDS_P1;SDS_P2;PMS_P1;PMS_P2;Temp;Humidity;BMP_temperature;BMP_pressure;BME280_temperature;BME280_humidity;BME280_pressure;Samples;Min_cycle;Max_cycle;Signal;HPM_P1;HPM_P2
2021/07/08 00:00:55;;;;;;;11.23;5.43;;;;;;;17.00;77.75;101836.66;5073187;28;20055;-57
2021/07/08 00:03:23;;;;;;;8.85;5.72;;;;;;;16.95;77.92;101845.94;5069684;28;20044;-56
2021/07/08 00:05:50;;;;;;;9.70;5.70;;;;;;;16.94;78.15;101846.91;5074377;28;20527;-59
2021/07/08 00:08:16;;;;;;;10.85;5.47;;;;;;;16.97;77.69;101847.47;5056612;28;20049;-59
2021/07/08 00:10:47;;;;;;;10.75;6.13;;;;;;;17.00;77.32;101846.41;5074390;28;20599;-59
2021/07/08 00:13:16;;;;;;;9.68;5.43;;;;;;;16.92;77.33;101848.81;5074441;28;20067;-59
2021/07/08 00:15:43;;;;;;;9.57;5.85;;;;;;;16.98;77.13;101849.19;5056596;28;20047;-58
2021/07/08 00:18:11;;;;;;;9.75;5.90;;;;;;;16.90;77.40;101843.63;5055697;28;20049;-59
2021/07/08 00:20:45;;;;;;;11.10;5.90;;;;;;;16.84;77.57;101844.91;5056568;28;20156;-59
2021/07/08 00:23:16;;;;;;;8.75;5.75;;;;;;;16.84;77.68;101844.06;5072641;28;20048;-56
2021/07/08 00:25:44;;;;;;;10.48;6.20;;;;;;;16.78;77.61;101848.00;5071316;28;20052;-57
2021/07/08 00:28:12;;;;;;;11.05;6.45;;;;;;;16.75;77.46;101852.72;5071205;28;20036;-57
2021/07/08 00:30:40;;;;;;;11.23;6.32;;;;;;;16.71;77.68;101850.31;5071558;28;20044;-56
2021/07/08 00:33:08;;;;;;;10.95;6.43;;;;;;;16.43;79.30;101850.66;5050601;28;20044;-57
2021/07/08 00:35:34;;;;;;;9.70;6.43;;;;;;;16.48;78.72;101848.50;5071783;28;20044;-59
2021/07/08 00:38:01;;;;;;;10.82;6.32;;;;;;;16.45;78.96;101843.44;5073894;28;20060;-60
2021/07/08 00:40:28;;;;;;;10.73;6.90;;;;;;;16.51;78.63;101838.53;5073614;28;20048;-59
2021/07/08 00:42:55;;;;;;;10.38;6.30;;;;;;;16.43;79.15;101845.34;5055294;28;20052;-56
2021/07/08 00:45:23;;;;;;;12.95;6.63;;;;;;;16.56;78.59;101836.38;5063109;28;20048;-58
2021/07/08 00:47:51;;;;;;;10.40;5.97;;;;;;;16.54;78.70;101840.09;5068765;28;20550;-56
2021/07/08 00:50:23;;;;;;;10.82;6.10;;;;;;;16.52;78.46;101847.31;5069835;28;20539;-56
2021/07/08 00:52:50;;;;;;;10.90;6.53;;;;;;;16.53;78.63;101843.72;5069923;28;20493;-56
2021/07/08 00:55:18;;;;;;;10.48;6.88;;;;;;;16.49;79.02;101847.56;5068148;28;20055;-55
2021/07/08 00:57:55;;;;;;;11.38;7.07;;;;;;;16.48;79.21;101846.69;5052993;28;20625;-54
2021/07/08 01:00:30;;;;;;;10.68;7.50;;;;;;;16.41;79.61;101848.13;5052523;28;20049;-56
2021/07/08 01:02:58;;;;;;;12.13;7.05;;;;;;;16.46;78.76;101845.13;5070524;28;20736;-59
2021/07/08 01:05:31;;;;;;;10.50;6.68;;;;;;;16.41;79.21;101847.28;5073025;28;20048;-59
2021/07/08 01:07:58;;;;;;;10.05;7.13;;;;;;;16.14;80.55;101849.22;5071425;28;20044;-56
2021/07/08 01:10:26;;;;;;;14.25;7.30;;;;;;;15.88;82.14;101856.38;5052420;28;20614;-60
2021/07/08 01:12:53;;;;;;;11.93;7.60;;;;;;;15.69;82.57;101860.31;5071456;28;20049;-57
2021/07/08 01:15:20;;;;;;;12.15;7.18;;;;;;;15.74;82.58;101857.34;5055065;28;20102;-59
2021/07/08 01:17:48;;;;;;;13.18;6.93;;;;;;;15.69;82.82;101868.28;5054322;28;20040;-57
2021/07/08 01:20:17;;;;;;;9.63;7.00;;;;;;;15.80;81.89;101869.34;5069614;28;20056;-57
2021/07/08 01:22:48;;;;;;;11.15;6.85;;;;;;;15.89;81.51;101874.00;5070585;28;20405;-57
2021/07/08 01:25:17;;;;;;;10.65;6.82;;;;;;;15.97;80.86;101874.28;5072380;28;20135;-60
2021/07/08 01:27:44;;;;;;;11.40;7.13;;;;;;;15.98;80.85;101868.03;5072798;28;20044;-60
2021/07/08 01:30:12;;;;;;;10.10;6.85;;;;;;;16.02;80.74;101874.81;5072163;28;20053;-60
2021/07/08 01:32:39;;;;;;;10.57;6.95;;;;;;;16.03;80.97;101875.66;5071199;28;20057;-60
2021/07/08 01:35:08;;;;;;;10.45;6.93;;;;;;;16.02;81.09;101872.16;5072676;28;20536;-60
2021/07/08 01:37:35;;;;;;;10.60;6.63;;;;;;;16.03;80.88;101868.56;5072444;28;20040;-60
2021/07/08 01:40:08;;;;;;;9.43;6.63;;;;;;;16.10;81.22;101865.44;5052043;28;20408;-57
2021/07/08 01:42:35;;;;;;;11.10;6.53;;;;;;;16.14;81.14;101869.56;5069835;28;20036;-56
2021/07/08 01:45:06;;;;;;;11.68;6.85;;;;;;;16.13;81.20;101868.72;5066838;28;20563;-57
2021/07/08 01:47:33;;;;;;;12.80;8.00;;;;;;;16.12;81.21;101864.38;5070072;28;20055;-60
2021/07/08 01:50:01;;;;;;;11.57;7.47;;;;;;;16.04;81.64;101870.22;5072364;28;20041;-59
2021/07/08 01:52:27;;;;;;;10.43;7.28;;;;;;;16.00;81.68;101868.75;5054719;28;20053;-60
2021/07/08 01:54:54;;;;;;;10.40;6.82;;;;;;;16.05;81.25;101856.00;5072000;28;20040;-60
2021/07/08 01:57:21;;;;;;;11.07;7.05;;;;;;;16.06;81.33;101848.91;5072066;28;20049;-59
2021/07/08 01:59:48;;;;;;;13.18;7.35;;;;;;;16.14;81.00;101862.47;5071469;28;20058;-60
2021/07/08 02:02:15;;;;;;;12.20;7.22;;;;;;;16.12;81.46;101869.69;5071004;28;20413;-60
2021/07/08 02:04:42;;;;;;;10.98;7.03;;;;;;;16.09;81.77;101864.59;5053339;28;20052;-59
2021/07/08 02:07:09;;;;;;;10.93;6.68;;;;;;;16.11;81.69;101864.50;5072180;28;20056;-60
2021/07/08 02:09:36;;;;;;;11.25;7.00;;;;;;;16.11;81.62;101851.22;5071914;28;20067;-61
2021/07/08 02:12:03;;;;;;;9.95;6.43;;;;;;;16.18;81.37;101861.28;5072150;28;20045;-61
2021/07/08 02:14:30;;;;;;;9.50;6.95;;;;;;;16.12;81.53;101860.88;5071342;28;20060;-60
2021/07/08 02:16:57;;;;;;;9.73;6.55;;;;;;;16.13;82.06;101855.47;5071553;28;20055;-59
2021/07/08 02:19:24;;;;;;;11.55;6.57;;;;;;;16.09;81.92;101858.44;5071775;28;20044;-59
2021/07/08 02:21:50;;;;;;;14.52;6.90;;;;;;;16.19;81.87;101848.84;5054097;28;20504;-59
2021/07/08 02:24:17;;;;;;;9.80;6.93;;;;;;;16.23;81.19;101845.03;5054127;28;20439;-59
2021/07/08 02:26:44;;;;;;;11.82;6.82;;;;;;;16.25;80.97;101842.25;5072062;28;20412;-60
2021/07/08 02:29:13;;;;;;;10.15;6.53;;;;;;;16.25;80.86;101842.25;5071503;28;20113;-60
2021/07/08 02:31:40;;;;;;;10.18;6.93;;;;;;;16.24;80.74;101841.41;5071508;28;20056;-59
2021/07/08 02:34:07;;;;;;;10.95;6.78;;;;;;;16.27;80.88;101849.13;5070600;28;20215;-59
2021/07/08 02:36:34;;;;;;;11.30;7.47;;;;;;;16.24;80.61;101844.06;5071799;28;20415;-59
2021/07/08 02:39:01;;;;;;;11.50;7.97;;;;;;;16.20;81.20;101839.94;5070434;28;20045;-60
2021/07/08 02:41:28;;;;;;;12.13;7.93;;;;;;;16.21;80.55;101838.97;5071016;28;20056;-59
2021/07/08 02:43:54;;;;;;;11.45;7.28;;;;;;;16.16;81.09;101836.66;5071267;28;20056;-60
2021/07/08 02:46:21;;;;;;;10.13;7.43;;;;;;;16.15;81.50;101828.81;5053070;28;20505;-59
2021/07/08 02:48:48;;;;;;;12.55;8.55;;;;;;;16.16;81.41;101836.66;5071580;28;20139;-59
2021/07/08 02:51:15;;;;;;;11.60;7.70;;;;;;;16.25;81.21;101842.25;5071482;28;20057;-59
2021/07/08 02:53:42;;;;;;;12.68;7.82;;;;;;;16.19;81.11;101835.59;5071718;28;20045;-59
2021/07/08 02:56:11;;;;;;;12.25;7.95;;;;;;;16.18;81.46;101837.41;5056498;28;20505;-59
2021/07/08 02:58:38;;;;;;;10.85;7.88;;;;;;;16.14;81.79;101843.03;5074194;28;20056;-59
2021/07/08 03:01:05;;;;;;;11.75;7.50;;;;;;;16.16;81.91;101841.97;5074199;28;20074;-56
2021/07/08 03:03:32;;;;;;;11.70;8.13;;;;;;;16.25;81.51;101850.22;5072617;28;20057;-56
2021/07/08 03:05:59;;;;;;;14.30;8.20;;;;;;;16.17;82.05;101851.63;5072964;28;20094;-59
2021/07/08 03:08:25;;;;;;;12.45;7.93;;;;;;;16.15;82.30;101852.69;5075650;28;20052;-59
2021/07/08 03:10:52;;;;;;;12.20;8.40;;;;;;;16.11;83.10;101848.56;5057353;28;20055;-59
2021/07/08 03:13:19;;;;;;;12.30;8.20;;;;;;;16.11;82.88;101845.91;5075014;28;20523;-59
2021/07/08 03:15:46;;;;;;;11.15;7.45;;;;;;;16.12;83.03;101858.22;5056569;28;20063;-58
2021/07/08 03:18:13;;;;;;;14.85;8.30;;;;;;;16.09;82.59;101863.75;5057383;28;20045;-58
2021/07/08 03:20:45;;;;;;;14.70;9.38;;;;;;;16.08;82.93;101864.72;5075354;28;20048;-58
2021/07/08 03:23:12;;;;;;;16.50;9.27;;;;;;;16.07;83.44;101860.38;5075056;28;20049;-58
2021/07/08 03:25:39;;;;;;;12.95;9.18;;;;;;;16.13;83.02;101870.50;5071486;28;20511;-54
2021/07/08 03:28:06;;;;;;;12.43;9.32;;;;;;;16.17;82.90;101861.38;5072413;28;20056;-56
2021/07/08 03:30:33;;;;;;;14.18;8.93;;;;;;;16.13;83.27;101863.44;5070727;28;20048;-56
2021/07/08 03:33:02;;;;;;;13.60;9.32;;;;;;;16.12;83.39;101868.84;5038942;28;20059;-55
2021/07/08 03:35:31;;;;;;;12.70;8.73;;;;;;;16.18;83.09;101869.25;5072076;28;20052;-56
2021/07/08 03:37:58;;;;;;;12.40;9.48;;;;;;;16.13;83.23;101866.06;5072088;28;20511;-56
2021/07/08 03:40:27;;;;;;;12.63;8.63;;;;;;;16.13;83.62;101859.91;5053936;28;20546;-56
2021/07/08 03:42:55;;;;;;;12.82;8.70;;;;;;;16.19;83.49;101859.47;5055815;28;20045;-60
2021/07/08 03:45:23;;;;;;;13.82;9.10;;;;;;;16.25;82.97;101858.16;5074172;28;20049;-57
2021/07/08 03:47:51;;;;;;;20.48;10.38;;;;;;;16.22;82.51;101848.63;5070113;28;20045;-56
2021/07/08 03:50:18;;;;;;;17.13;11.13;;;;;;;16.21;82.38;101857.53;5072597;28;20040;-57
2021/07/08 03:52:45;;;;;;;18.75;11.07;;;;;;;16.20;82.97;101864.66;5071687;28;20059;-57
2021/07/08 03:55:19;;;;;;;16.30;10.68;;;;;;;16.28;82.56;101864.13;5071837;28;20072;-56
2021/07/08 03:57:56;;;;;;;14.90;10.95;;;;;;;16.23;83.03;101864.44;5072076;28;20039;-57
2021/07/08 04:00:29;;;;;;;14.82;10.48;;;;;;;16.19;83.36;101875.41;5052285;28;20056;-54
2021/07/08 04:03:04;;;;;;;14.45;11.70;;;;;;;16.18;83.48;101869.25;5071018;28;20061;-55
2021/07/08 04:05:32;;;;;;;17.73;11.38;;;;;;;16.23;83.84;101871.56;5074322;28;20076;-59
2021/07/08 04:07:59;;;;;;;16.88;11.32;;;;;;;16.22;83.21;101872.50;5073289;28;20036;-59
2021/07/08 04:10:27;;;;;;;15.45;11.43;;;;;;;16.27;83.41;101869.53;5040119;28;20094;-59
2021/07/08 04:12:59;;;;;;;16.25;11.85;;;;;;;16.26;83.04;101875.78;5073370;28;20151;-55
2021/07/08 04:15:26;;;;;;;18.20;11.95;;;;;;;16.30;82.92;101872.78;5050928;28;20045;-56
2021/07/08 04:17:53;;;;;;;15.13;11.15;;;;;;;16.21;83.00;101874.31;5053079;28;20481;-56
2021/07/08 04:20:21;;;;;;;16.10;11.68;;;;;;;16.19;83.38;101870.94;5071756;28;20439;-56
2021/07/08 04:22:48;;;;;;;17.30;11.32;;;;;;;16.20;83.55;101871.78;5053141;28;20056;-55
2021/07/08 04:25:16;;;;;;;15.68;12.15;;;;;;;16.26;83.55;101881.09;5055731;28;20052;-61
2021/07/08 04:27:44;;;;;;;18.80;12.85;;;;;;;16.25;83.19;101874.94;5073833;28;20044;-59
2021/07/08 04:30:14;;;;;;;20.75;12.60;;;;;;;16.32;83.17;101870.03;5070928;28;20127;-56
2021/07/08 04:32:41;;;;;;;17.58;11.75;;;;;;;16.29;82.71;101870.25;5053387;28;20048;-56
2021/07/08 04:35:10;;;;;;;19.42;13.27;;;;;;;16.26;82.98;101881.09;5053056;28;20066;-55
2021/07/08 04:37:42;;;;;;;18.83;12.57;;;;;;;16.30;82.82;101877.28;5070860;28;20047;-56
2021/07/08 04:40:11;;;;;;;18.25;12.18;;;;;;;16.34;82.66;101878.75;5052810;28;20052;-56
2021/07/08 04:42:38;;;;;;;18.00;12.93;;;;;;;16.29;82.95;101892.34;5070635;28;20063;-57
2021/07/08 04:45:07;;;;;;;20.45;13.00;;;;;;;16.29;82.86;101891.50;5069000;28;20102;-57
2021/07/08 04:47:36;;;;;;;17.83;12.90;;;;;;;16.32;82.77;101888.59;5053044;28;20048;-56
2021/07/08 04:50:09;;;;;;;22.25;13.70;;;;;;;16.44;82.51;101889.53;5053425;28;20048;-57
2021/07/08 04:52:37;;;;;;;20.27;14.18;;;;;;;16.44;83.13;101900.13;5072606;28;20443;-56
2021/07/08 04:55:05;;;;;;;21.73;13.90;;;;;;;16.39;82.89;101898.66;5052692;28;20056;-55
2021/07/08 04:57:32;;;;;;;19.77;14.23;;;;;;;16.36;82.95;101903.34;5070467;28;20063;-57
2021/07/08 04:59:59;;;;;;;18.52;13.80;;;;;;;16.38;83.27;101912.06;5068908;28;20075;-57
2021/07/08 05:02:26;;;;;;;18.80;13.63;;;;;;;16.39;83.36;101919.91;5070448;28;20049;-56
2021/07/08 05:04:53;;;;;;;20.15;14.23;;;;;;;16.42;83.03;101923.31;5052589;28;20044;-56
2021/07/08 05:07:19;;;;;;;18.00;14.00;;;;;;;16.47;83.34;101929.09;5052898;28;20052;-55
2021/07/08 05:09:46;;;;;;;21.40;15.65;;;;;;;16.55;82.63;101929.41;5069793;28;20040;-58
2021/07/08 05:12:13;;;;;;;21.73;14.75;;;;;;;16.53;82.57;101918.06;5055382;28;20041;-59
2021/07/08 05:14:40;;;;;;;22.55;14.25;;;;;;;16.55;82.17;101913.47;5072119;28;20500;-59
2021/07/08 05:17:07;;;;;;;19.85;13.63;;;;;;;16.58;81.71;101918.56;5072184;28;20157;-59
2021/07/08 05:19:34;;;;;;;20.77;15.48;;;;;;;16.66;81.26;101925.94;5054705;28;20156;-56
2021/07/08 05:22:01;;;;;;;21.15;14.45;;;;;;;16.69;81.55;101931.91;5069764;28;20524;-56
2021/07/08 05:24:28;;;;;;;19.35;13.63;;;;;;;16.73;81.44;101921.91;5051768;28;20048;-56
2021/07/08 05:26:55;;;;;;;20.08;14.63;;;;;;;16.79;81.18;101918.78;5071112;28;20522;-59
2021/07/08 05:29:23;;;;;;;21.20;13.65;;;;;;;16.78;81.27;101930.34;5071992;28;20052;-59
2021/07/08 05:31:50;;;;;;;20.70;14.40;;;;;;;16.77;81.40;101939.31;5054293;28;20048;-59
2021/07/08 05:34:18;;;;;;;19.30;14.60;;;;;;;16.80;81.21;101939.06;5076186;28;20048;-56
2021/07/08 05:36:44;;;;;;;19.88;13.98;;;;;;;16.86;81.50;101941.25;5071874;28;20109;-56
2021/07/08 05:39:12;;;;;;;19.55;13.77;;;;;;;17.04;80.80;101936.44;5088896;28;20060;-54
2021/07/08 05:41:39;;;;;;;20.08;13.52;;;;;;;17.01;80.56;101941.09;5068799;28;20163;-55
2021/07/08 05:44:06;;;;;;;20.05;13.85;;;;;;;17.06;80.33;101939.78;5069163;28;20063;-56
2021/07/08 05:46:33;;;;;;;20.50;13.90;;;;;;;17.11;80.40;101941.25;5067497;28;20056;-55
2021/07/08 05:49:00;;;;;;;18.50;13.20;;;;;;;17.26;79.87;101941.91;5067738;28;20101;-55
2021/07/08 05:51:30;;;;;;;18.73;13.35;;;;;;;17.36;79.59;101943.75;5065017;28;20127;-55
2021/07/08 05:53:59;;;;;;;17.55;13.27;;;;;;;17.41;79.46;101943.41;5052025;28;20044;-56
2021/07/08 05:56:27;;;;;;;21.15;14.23;;;;;;;17.54;79.04;101953.94;5069671;28;20048;-57
2021/07/08 05:58:54;;;;;;;20.13;13.40;;;;;;;17.63;78.39;101957.69;5069122;28;20045;-56
2021/07/08 06:01:21;;;;;;;20.10;12.95;;;;;;;17.70;77.64;101953.59;5050779;28;20052;-60
2021/07/08 06:03:49;;;;;;;18.27;12.98;;;;;;;17.75;77.57;101943.41;5072365;28;20060;-60
2021/07/08 06:06:16;;;;;;;17.67;13.38;;;;;;;17.76;76.73;101939.78;5054876;28;20147;-60
2021/07/08 06:08:46;;;;;;;16.08;11.80;;;;;;;17.94;77.29;101942.00;5037517;28;20134;-59
2021/07/08 06:11:14;;;;;;;18.63;13.52;;;;;;;18.03;77.19;101934.13;5071309;28;20048;-59
2021/07/08 06:13:41;;;;;;;20.52;12.73;;;;;;;18.13;76.84;101928.09;5072361;28;20037;-60
2021/07/08 06:16:08;;;;;;;16.90;12.68;;;;;;;18.24;76.26;101930.72;5071140;28;20052;-60
2021/07/08 06:18:36;;;;;;;17.25;11.80;;;;;;;18.36;76.05;101934.22;5072571;28;20040;-60
2021/07/08 06:21:06;;;;;;;19.42;13.15;;;;;;;18.42;75.67;101934.56;5071472;28;20060;-60
2021/07/08 06:23:33;;;;;;;17.63;12.13;;;;;;;18.54;75.20;101932.72;5072774;28;20049;-60
2021/07/08 06:26:00;;;;;;;14.68;11.35;;;;;;;18.68;75.27;101926.25;5072643;28;20061;-60
2021/07/08 06:28:27;;;;;;;16.83;11.35;;;;;;;18.83;75.20;101931.25;5071075;28;20044;-57
2021/07/08 06:30:53;;;;;;;16.73;12.55;;;;;;;18.94;73.69;101931.25;5066647;28;20071;-57
2021/07/08 06:33:20;;;;;;;19.58;12.02;;;;;;;19.04;72.97;101926.84;5070092;28;20365;-56
2021/07/08 06:35:48;;;;;;;17.35;12.63;;;;;;;19.20;73.45;101933.56;5068942;28;20467;-56
2021/07/08 06:38:15;;;;;;;16.15;11.57;;;;;;;19.33;73.01;101936.00;5069015;28;20102;-57
2021/07/08 06:40:42;;;;;;;17.33;12.45;;;;;;;19.43;71.73;101937.75;5068537;28;20393;-60
2021/07/08 06:43:09;;;;;;;17.27;12.52;;;;;;;19.54;70.73;101936.00;5071090;28;20072;-60
2021/07/08 06:45:36;;;;;;;14.85;11.65;;;;;;;19.70;71.07;101941.69;5070955;28;20056;-61
2021/07/08 06:48:12;;;;;;;16.40;12.02;;;;;;;19.88;70.62;101930.44;5053831;28;20048;-57
2021/07/08 06:50:41;;;;;;;18.52;12.70;;;;;;;19.99;68.90;101943.66;5072191;28;20102;-60
2021/07/08 06:53:08;;;;;;;15.63;11.73;;;;;;;20.14;68.17;101948.63;5070930;28;20060;-60
2021/07/08 06:55:37;;;;;;;17.27;11.43;;;;;;;20.27;67.37;101952.75;5051167;28;20512;-57
2021/07/08 06:58:05;;;;;;;17.90;12.00;;;;;;;20.39;67.84;101953.47;5068338;28;20052;-58
2021/07/08 07:00:35;;;;;;;18.80;11.95;;;;;;;20.37;67.18;101950.09;5066631;28;20049;-57
2021/07/08 07:03:03;;;;;;;19.63;12.30;;;;;;;20.70;66.96;101957.91;5050904;28;20056;-58
2021/07/08 07:05:30;;;;;;;15.88;11.10;;;;;;;20.84;66.97;101970.84;5069944;28;20039;-60
2021/07/08 07:07:57;;;;;;;15.80;11.43;;;;;;;20.94;65.00;101970.84;5034842;28;20044;-57
2021/07/08 07:10:25;;;;;;;15.00;12.20;;;;;;;20.97;65.12;101973.25;5068587;28;20049;-57
2021/07/08 07:12:54;;;;;;;18.02;12.55;;;;;;;21.05;63.08;101976.06;5053684;28;20102;-60
2021/07/08 07:15:27;;;;;;;17.75;11.93;;;;;;;21.29;63.20;101966.72;5070718;28;20072;-60
2021/07/08 07:17:56;;;;;;;17.05;11.48;;;;;;;21.44;63.82;101970.63;5068900;28;20052;-57
2021/07/08 07:20:24;;;;;;;17.05;12.02;;;;;;;21.62;63.19;101967.25;5069210;28;20056;-58
2021/07/08 07:22:51;;;;;;;15.68;11.65;;;;;;;21.81;62.33;101968.19;5051078;28;20485;-58
2021/07/08 07:25:20;;;;;;;14.98;10.93;;;;;;;21.98;60.87;101969.22;5068412;28;20090;-57
2021/07/08 07:27:50;;;;;;;16.75;11.18;;;;;;;22.12;61.55;101974.94;5051039;28;20044;-58
2021/07/08 07:30:21;;;;;;;15.77;11.13;;;;;;;22.21;62.66;101972.34;5049578;28;20041;-57
2021/07/08 07:32:49;;;;;;;16.63;10.52;;;;;;;22.16;62.55;101977.34;5068221;28;20055;-58
2021/07/08 07:35:16;;;;;;;13.70;10.02;;;;;;;22.27;61.86;101980.63;5068489;28;20052;-57
2021/07/08 07:37:43;;;;;;;17.10;10.65;;;;;;;22.36;61.45;101978.94;5068581;28;20052;-57
2021/07/08 07:40:11;;;;;;;14.43;10.20;;;;;;;22.68;61.41;101979.44;5067997;28;20052;-57
2021/07/08 07:42:40;;;;;;;16.20;10.60;;;;;;;22.78;59.83;101975.69;5070523;28;20435;-57
2021/07/08 07:45:08;;;;;;;15.05;11.52;;;;;;;23.02;59.74;101976.88;5052663;28;20048;-57
2021/07/08 07:47:35;;;;;;;14.32;9.90;;;;;;;23.31;59.88;101978.47;5072327;28;20051;-60
2021/07/08 07:50:04;;;;;;;13.85;9.85;;;;;;;23.56;57.99;101976.81;5057124;28;20048;-59
2021/07/08 07:52:31;;;;;;;16.00;11.43;;;;;;;23.51;58.09;101980.97;5075255;28;20439;-59
2021/07/08 07:54:57;;;;;;;14.55;11.15;;;;;;;23.60;57.88;101977.31;5054008;28;20110;-57
2021/07/08 07:57:24;;;;;;;15.55;9.77;;;;;;;23.76;57.40;101980.13;5071933;28;20083;-58
2021/07/08 07:59:51;;;;;;;15.65;10.70;;;;;;;23.68;56.56;101976.53;5069793;28;20066;-58
2021/07/08 08:02:18;;;;;;;13.73;10.25;;;;;;;23.89;56.88;101974.34;5071071;28;20055;-57
2021/07/08 08:05:08;;;;;;;14.20;10.50;;;;;;;23.85;57.20;101988.22;5073601;28;20044;-60
2021/07/08 08:10:20;;;;;;;12.95;10.02;;;;;;;23.80;55.81;101986.00;5073984;28;20053;-60
2021/07/08 08:12:48;;;;;;;14.15;9.07;;;;;;;24.15;56.63;101989.56;5073702;28;20525;-58
2021/07/08 08:15:17;;;;;;;14.15;8.10;;;;;;;24.33;55.82;101989.44;5068892;28;20051;-58
2021/07/08 08:17:45;;;;;;;12.52;8.65;;;;;;;24.59;54.72;101985.81;5053548;28;20049;-57
2021/07/08 08:20:15;;;;;;;13.82;8.98;;;;;;;24.39;53.97;101980.75;5037534;28;20048;-58
2021/07/08 08:22:42;;;;;;;17.20;9.63;;;;;;;24.58;54.61;101984.13;5071943;28;20044;-58
2021/07/08 08:25:10;;;;;;;12.68;8.30;;;;;;;24.78;55.10;101972.06;5055025;28;20136;-60
2021/07/08 08:27:38;;;;;;;11.25;8.20;;;;;;;24.94;51.31;101970.41;5073714;28;20048;-59
2021/07/08 08:30:06;;;;;;;11.32;7.32;;;;;;;25.05;50.77;101974.63;5074658;28;20045;-60
2021/07/08 08:32:33;;;;;;;8.15;5.03;;;;;;;25.11;47.93;101968.56;5056890;28;20049;-59
2021/07/08 08:35:00;;;;;;;9.15;4.80;;;;;;;25.28;47.96;101964.00;5073150;28;20052;-58
2021/07/08 08:37:27;;;;;;;10.23;6.93;;;;;;;25.39;48.25;101968.22;5073855;28;20044;-60
2021/07/08 08:39:54;;;;;;;10.10;7.55;;;;;;;25.53;47.51;101969.38;5039971;28;20045;-59
2021/07/08 08:42:21;;;;;;;11.57;6.45;;;;;;;25.89;48.24;101960.84;5074201;28;20523;-59
2021/07/08 08:44:47;;;;;;;9.70;6.25;;;;;;;26.19;48.39;101966.44;5074464;28;20086;-59
2021/07/08 08:47:14;;;;;;;10.70;6.95;;;;;;;26.01;46.19;101970.19;5074338;28;20052;-59
2021/07/08 08:49:42;;;;;;;9.70;6.88;;;;;;;26.18;46.34;101970.16;5073895;28;20090;-59
2021/07/08 08:52:10;;;;;;;11.35;7.28;;;;;;;25.84;46.76;101969.44;5054757;28;20079;-60
2021/07/08 08:54:40;;;;;;;12.55;6.90;;;;;;;25.98;46.78;101971.41;5054879;28;20051;-60
2021/07/08 08:57:07;;;;;;;10.05;6.78;;;;;;;25.33;48.08;101966.19;5073210;28;20048;-60
2021/07/08 08:59:35;;;;;;;12.77;6.97;;;;;;;25.26;49.71;101960.63;5072723;28;20044;-60
2021/07/08 09:02:18;;;;;;;10.13;6.90;;;;;;;25.09;50.60;101963.34;5052935;28;20056;-58
2021/07/08 09:04:50;;;;;;;10.40;7.32;;;;;;;25.24;49.74;101960.81;5069955;28;20044;-58
2021/07/08 09:07:23;;;;;;;13.35;7.00;;;;;;;24.85;50.93;101971.41;5069933;28;20045;-58
2021/07/08 09:09:58;;;;;;;12.13;7.40;;;;;;;24.98;50.25;101969.06;5069319;28;20509;-58
2021/07/08 09:12:26;;;;;;;10.50;7.50;;;;;;;25.35;48.77;101977.66;5068719;28;20116;-60
2021/07/08 09:15:15;;;;;;;10.68;7.03;;;;;;;25.23;49.01;101979.81;5072347;28;20044;-60
2021/07/08 09:17:43;;;;;;;10.80;6.20;;;;;;;25.51;48.75;101979.47;5072839;28;20052;-60
2021/07/08 09:20:14;;;;;;;12.23;6.50;;;;;;;25.61;49.03;101980.97;5055141;28;20036;-60
2021/07/08 09:22:42;;;;;;;10.10;6.45;;;;;;;25.93;49.19;101978.31;5073075;28;20527;-60
2021/07/08 09:25:21;;;;;;;11.35;5.65;;;;;;;26.32;48.80;101977.50;5071611;28;20393;-60
2021/07/08 09:28:09;;;;;;;10.60;6.60;;;;;;;26.41;47.03;101972.88;5072916;28;20051;-60
2021/07/08 09:30:36;;;;;;;9.18;6.10;;;;;;;26.52;47.46;101983.28;5072581;28;20052;-60
2021/07/08 09:33:31;;;;;;;13.27;6.53;;;;;;;26.61;45.51;101976.84;5054482;28;20084;-60
2021/07/08 09:36:16;;;;;;;;;;;;;;;26.67;44.73;101964.47;5071218;28;20057;-60
2021/07/08 09:38:51;;;;;;;10.67;7.47;;;;;;;26.64;44.35;101975.59;5072438;28;19924;-60
2021/07/08 09:41:21;;;;;;;10.60;5.85;;;;;;;26.60;45.57;101985.06;5069064;28;20044;-58
2021/07/08 09:43:49;;;;;;;8.68;5.50;;;;;;;26.80;45.40;101993.56;5068189;28;20115;-58
2021/07/08 09:46:16;;;;;;;8.02;4.80;;;;;;;27.21;45.79;102000.50;5067347;28;20059;-58
2021/07/08 09:49:11;;;;;;;8.77;5.53;;;;;;;27.07;43.39;102011.06;5060398;28;20079;-59
2021/07/08 09:51:41;;;;;;;7.53;4.95;;;;;;;27.37;45.74;102013.88;5051278;28;20141;-61
2021/07/08 09:54:13;;;;;;;9.43;5.40;;;;;;;27.74;44.24;102006.72;5066535;28;20084;-61
2021/07/08 09:56:46;;;;;;;11.10;5.53;;;;;;;27.93;43.26;101993.69;5045677;28;20052;-59
2021/07/08 09:59:15;;;;;;;9.35;5.28;;;;;;;28.14;42.59;101990.22;5063407;28;20124;-60
2021/07/08 10:01:43;;;;;;;8.77;5.63;;;;;;;28.56;39.23;101993.19;5051357;28;20044;-66
2021/07/08 10:04:10;;;;;;;7.57;5.13;;;;;;;28.61;39.99;101993.47;5064128;28;20145;-67
2021/07/08 10:06:38;;;;;;;7.68;4.35;;;;;;;28.86;40.45;101995.81;5057905;28;20048;-64
2021/07/08 10:09:06;;;;;;;8.38;4.60;;;;;;;28.08;40.88;101999.94;5063637;28;20056;-60
2021/07/08 10:11:33;;;;;;;7.20;4.30;;;;;;;28.25;40.96;101997.88;5043158;28;20439;-63
2021/07/08 10:14:03;;;;;;;5.55;3.63;;;;;;;28.38;40.22;101999.06;5058971;28;20668;-56
2021/07/08 10:16:32;;;;;;;5.30;2.83;;;;;;;28.73;36.97;101989.25;5053451;28;20045;-69
2021/07/08 10:19:02;;;;;;;6.03;2.90;;;;;;;28.74;38.79;101993.63;5067831;28;20119;-60
2021/07/08 10:21:30;;;;;;;6.35;3.28;;;;;;;28.84;39.22;101994.13;5049021;28;20044;-60
2021/07/08 10:24:01;;;;;;;136.73;20.80;;;;;;;29.24;37.47;101990.09;5060999;28;20058;-63
2021/07/08 10:26:28;;;;;;;8.70;3.35;;;;;;;29.27;37.49;101984.31;5058119;28;20428;-59
2021/07/08 10:28:56;;;;;;;7.38;3.50;;;;;;;29.17;38.68;101988.16;5062560;28;20043;-59
2021/07/08 10:31:25;;;;;;;8.98;4.07;;;;;;;29.02;39.01;101995.53;5058503;28;20043;-57
2021/07/08 10:34:10;;;;;;;8.63;3.80;;;;;;;28.93;39.04;101997.56;5063337;28;20473;-56
2021/07/08 10:36:38;;;;;;;7.60;3.65;;;;;;;28.97;39.41;101990.72;5060983;28;20049;-58
2021/07/08 10:39:10;;;;;;;6.25;3.97;;;;;;;28.76;39.26;101993.44;5059811;28;20760;-59
2021/07/08 10:41:36;;;;;;;6.88;3.80;;;;;;;28.70;39.90;101992.34;5050629;28;20128;-59
2021/07/08 10:44:03;;;;;;;8.82;3.88;;;;;;;28.82;39.95;101988.09;5068174;28;20094;-59
2021/07/08 10:46:50;;;;;;;7.45;3.15;;;;;;;29.09;39.23;101984.78;5066748;28;20114;-64
2021/07/08 10:49:17;;;;;;;7.53;3.28;;;;;;;29.09;38.11;101984.78;5067847;28;20550;-64
2021/07/08 10:51:44;;;;;;;6.70;3.35;;;;;;;29.24;38.24;101979.25;5041475;28;20047;-65
2021/07/08 10:54:29;;;;;;;8.90;3.40;;;;;;;29.43;37.84;101978.56;5066858;28;20056;-65
2021/07/08 10:56:58;;;;;;;6.13;3.00;;;;;;;29.27;37.79;101973.47;5066117;28;20242;-63
2021/07/08 10:59:45;;;;;;;42.90;8.23;;;;;;;28.55;38.13;101976.13;5032679;28;20056;-62
2021/07/08 11:02:49;;;;;;;6.68;2.80;;;;;;;28.88;39.08;101961.25;5039812;28;20060;-62
2021/07/08 11:05:54;;;;;;;7.03;3.30;;;;;;;28.29;39.14;101961.31;5069070;28;20047;-63
2021/07/08 11:08:46;;;;;;;7.43;2.90;;;;;;;28.56;38.27;101953.44;5079176;28;20052;-62
2021/07/08 11:11:18;;;;;;;13.60;5.13;;;;;;;28.41;37.68;101956.22;5048778;28;20041;-58
2021/07/08 11:13:45;;;;;;;;;;;;;;;28.34;38.43;101952.59;5049611;28;20155;-62
2021/07/08 11:16:44;;;;;;;11.88;3.38;;;;;;;28.50;36.93;101960.47;5047907;28;20323;-64
2021/07/08 11:19:20;;;;;;;5.60;2.70;;;;;;;28.85;37.78;101954.38;5056282;28;20440;-64
2021/07/08 11:22:03;;;;;;;5.85;3.30;;;;;;;29.49;37.22;101952.56;5055554;28;20056;-63
2021/07/08 11:24:43;;;;;;;6.82;3.00;;;;;;;29.30;36.23;101954.09;5054577;28;20084;-60
2021/07/08 11:27:34;;;;;;;7.45;3.20;;;;;;;28.87;36.71;101965.03;5053372;28;20398;-63
2021/07/08 11:30:13;;;;;;;7.40;3.33;;;;;;;29.57;36.34;101954.28;5053214;28;20058;-62